createdAt,value
2022-09-24T00:01:19.713Z,2.83
2022-09-24T00:04:20.135Z,2.60
2022-09-24T00:07:18.442Z,2.50
2022-09-24T00:10:17.074Z,2.85
2022-09-24T00:13:17.942Z,2.45
2022-09-24T00:16:18.492Z,2.50
2022-09-24T00:19:16.748Z,2.63
2022-09-24T00:22:15.429Z,2.67
2022-09-24T00:25:28.854Z,3.53
2022-09-24T00:28:28.170Z,2.50
2022-09-24T00:31:26.840Z,3.20
2022-09-24T00:34:25.589Z,2.92
2022-09-24T00:37:23.685Z,2.72
2022-09-24T00:40:27.554Z,3.13
2022-09-24T00:43:30.058Z,3.17
2022-09-24T00:46:44.756Z,2.92
2022-09-24T00:49:43.925Z,2.38
2022-09-24T00:52:49.060Z,3.40
2022-09-24T00:55:52.329Z,2.88
2022-09-24T00:58:54.591Z,3.97
2022-09-24T01:01:55.719Z,3.00
2022-09-24T01:04:56.638Z,2.85
2022-09-24T01:07:55.439Z,3.28
2022-09-24T01:11:20.464Z,3.40
2022-09-24T01:14:52.036Z,2.97
2022-09-24T01:18:21.756Z,2.97
2022-09-24T01:21:29.304Z,2.78
2022-09-24T01:24:52.859Z,3.00
2022-09-24T01:28:16.386Z,3.10
2022-09-24T01:31:22.937Z,3.53
2022-09-24T01:34:27.469Z,3.25
2022-09-24T01:37:29.436Z,3.58
2022-09-24T01:40:29.739Z,3.53
2022-09-24T01:43:30.895Z,2.63
2022-09-24T01:46:29.853Z,3.25
2022-09-24T01:49:29.160Z,2.85
2022-09-24T01:52:34.561Z,3.20
2022-09-24T01:55:41.432Z,3.25
2022-09-24T01:58:58.277Z,3.03
2022-09-24T02:02:08.379Z,3.28
2022-09-24T02:05:18.250Z,3.15
2022-09-24T02:08:29.949Z,3.00
2022-09-24T02:11:28.985Z,3.67
2022-09-24T02:14:32.389Z,3.80
2022-09-24T02:17:34.186Z,3.30
2022-09-24T02:20:36.861Z,4.45
2022-09-24T02:23:38.014Z,3.83
2022-09-24T02:26:36.851Z,3.28
2022-09-24T02:29:35.892Z,3.25
2022-09-24T02:32:37.529Z,2.95
2022-09-24T02:35:41.154Z,3.35
2022-09-24T02:38:40.569Z,3.20
2022-09-24T02:41:39.364Z,2.78
2022-09-24T02:44:38.360Z,2.67
2022-09-24T02:47:37.491Z,2.70
2022-09-24T02:50:36.227Z,3.17
2022-09-24T02:53:34.446Z,3.33
2022-09-24T02:56:33.216Z,3.70
2022-09-24T02:59:31.468Z,3.85
2022-09-24T03:02:30.225Z,3.15
2022-09-24T03:05:28.430Z,3.28
2022-09-24T03:08:27.654Z,2.50
2022-09-24T03:11:26.069Z,3.03
2022-09-24T03:14:25.612Z,3.35
2022-09-24T03:17:23.799Z,2.80
2022-09-24T03:20:24.713Z,2.85
2022-09-24T03:23:22.966Z,3.28
2022-09-24T03:26:21.722Z,3.22
2022-09-24T03:29:39.785Z,2.83
2022-09-24T03:32:39.922Z,3.65
2022-09-24T03:35:38.129Z,5.18
2022-09-24T03:38:38.884Z,3.25
2022-09-24T03:41:37.041Z,3.45
2022-09-24T03:44:35.632Z,3.45
2022-09-24T03:47:34.420Z,2.88
2022-09-24T03:50:36.474Z,3.08
2022-09-24T03:53:35.052Z,2.90
2022-09-24T03:56:33.988Z,2.60
2022-09-24T03:59:32.278Z,3.40
2022-09-24T04:02:31.725Z,3.50
2022-09-24T04:05:30.756Z,2.70
2022-09-24T04:08:29.457Z,2.78
2022-09-24T04:11:28.078Z,3.30
2022-09-24T04:14:26.701Z,2.97
2022-09-24T04:17:28.271Z,3.50
2022-09-24T04:20:29.845Z,2.90
2022-09-24T04:23:29.413Z,3.30
2022-09-24T04:26:28.063Z,3.63
2022-09-24T04:29:26.222Z,3.10
2022-09-24T04:32:25.001Z,3.15
2022-09-24T04:35:24.734Z,3.33
2022-09-24T04:38:23.432Z,2.95
2022-09-24T04:41:21.942Z,3.38
2022-09-24T04:44:20.954Z,3.80
2022-09-24T04:47:19.505Z,4.15
2022-09-24T04:50:18.232Z,3.78
2022-09-24T04:53:16.368Z,4.53
2022-09-24T04:56:15.911Z,4.72
2022-09-24T04:59:14.037Z,3.90
2022-09-24T05:02:12.928Z,3.90
2022-09-24T05:05:12.348Z,4.70
2022-09-24T05:08:11.453Z,5.50
2022-09-24T05:11:09.765Z,7.78
2022-09-24T05:14:08.972Z,5.95
2022-09-24T05:17:07.323Z,9.27
2022-09-24T05:20:07.608Z,8.05
2022-09-24T05:23:05.833Z,8.23
2022-09-24T05:26:19.739Z,10.18
2022-09-24T05:29:18.277Z,8.40
2022-09-24T05:32:21.956Z,10.93
2022-09-24T05:35:23.406Z,7.90
2022-09-24T05:38:22.163Z,8.50
2022-09-24T05:41:20.878Z,10.68
2022-09-24T05:44:22.149Z,11.07
2022-09-24T05:47:20.486Z,8.32
2022-09-24T05:50:19.322Z,9.73
2022-09-24T05:53:17.448Z,9.75
2022-09-24T05:56:16.120Z,9.90
2022-09-24T05:59:14.632Z,10.52
2022-09-24T06:02:13.411Z,9.50
2022-09-24T06:05:12.207Z,9.80
2022-09-24T06:08:10.924Z,10.80
2022-09-24T06:11:09.075Z,11.68
2022-09-24T06:14:09.232Z,14.00
2022-09-24T06:17:07.596Z,13.30
2022-09-24T06:20:06.690Z,14.25
2022-09-24T06:23:06.316Z,13.82
2022-09-24T06:26:08.119Z,13.32
2022-09-24T06:29:06.374Z,13.80
2022-09-24T06:32:05.265Z,16.45
2022-09-24T06:35:03.661Z,15.77
2022-09-24T06:38:03.248Z,12.88
2022-09-24T06:41:03.855Z,10.15
2022-09-24T06:44:02.924Z,11.32
2022-09-24T06:47:02.165Z,10.25
2022-09-24T06:50:01.035Z,10.95
2022-09-24T06:52:59.570Z,10.50
2022-09-24T06:56:00.294Z,10.45
2022-09-24T06:58:58.423Z,10.75
2022-09-24T07:01:57.156Z,21.58
2022-09-24T07:04:55.357Z,17.02
2022-09-24T07:07:54.105Z,21.73
2022-09-24T07:10:52.928Z,24.20
2022-09-24T07:13:53.077Z,20.60
2022-09-24T07:16:51.262Z,13.88
2022-09-24T07:19:50.337Z,11.20
2022-09-24T07:22:48.507Z,16.80
2022-09-24T07:25:47.163Z,16.42
2022-09-24T07:28:45.364Z,11.27
2022-09-24T07:31:44.024Z,9.88
2022-09-24T07:34:42.503Z,6.50
2022-09-24T07:37:41.201Z,6.75
2022-09-24T07:40:39.446Z,7.15
2022-09-24T07:43:39.260Z,6.68
2022-09-24T07:46:37.535Z,6.35
2022-09-24T07:49:37.273Z,5.05
2022-09-24T07:52:36.004Z,5.07
2022-09-24T07:55:40.120Z,5.95
2022-09-24T07:58:38.258Z,5.35
2022-09-24T08:01:37.460Z,5.43
2022-09-24T08:04:35.921Z,5.20
2022-09-24T08:07:34.618Z,4.90
2022-09-24T08:10:32.730Z,3.95
2022-09-24T08:13:31.443Z,4.93
2022-09-24T08:16:29.623Z,3.75
2022-09-24T08:19:28.811Z,5.25
2022-09-24T08:22:27.085Z,4.80
2022-09-24T08:25:25.983Z,4.10
2022-09-24T08:28:24.308Z,3.80
2022-09-24T08:31:23.072Z,3.72
2022-09-24T08:34:21.297Z,4.22
2022-09-24T08:37:20.014Z,3.67
2022-09-24T08:40:21.926Z,3.40
2022-09-24T08:43:49.026Z,3.67
2022-09-24T08:47:09.087Z,3.30
2022-09-24T08:50:17.871Z,2.85
2022-09-24T08:53:26.543Z,3.25
2022-09-24T08:56:29.887Z,3.65
2022-09-24T08:59:33.239Z,3.28
2022-09-24T09:02:59.781Z,2.50
2022-09-24T09:06:04.149Z,2.10
2022-09-24T09:09:15.721Z,3.60
2022-09-24T09:12:20.010Z,3.00
2022-09-24T09:15:28.208Z,4.20
2022-09-24T09:18:33.575Z,3.92
2022-09-24T09:21:53.122Z,3.60
2022-09-24T09:24:53.585Z,4.95
2022-09-24T09:27:57.154Z,5.13
2022-09-24T09:31:19.562Z,4.28
2022-09-24T09:34:44.851Z,4.07
2022-09-24T09:37:55.610Z,3.13
2022-09-24T09:41:18.738Z,4.03
2022-09-24T09:44:22.785Z,4.10
2022-09-24T09:47:41.952Z,3.83
2022-09-24T09:50:48.395Z,3.42
2022-09-24T09:54:03.811Z,2.78
2022-09-24T09:57:04.312Z,2.90
2022-09-24T10:00:04.253Z,3.42
2022-09-24T10:03:03.796Z,3.25
2022-09-24T10:06:04.338Z,3.17
2022-09-24T10:09:20.426Z,3.55
2022-09-24T10:12:22.837Z,3.10
2022-09-24T10:15:25.205Z,3.22
2022-09-24T10:18:31.537Z,3.80
2022-09-24T10:21:35.168Z,3.95
2022-09-24T10:24:36.368Z,3.45
2022-09-24T10:27:37.985Z,3.47
2022-09-24T10:30:48.532Z,2.67
2022-09-24T10:33:49.756Z,3.58
2022-09-24T10:36:53.267Z,3.15
2022-09-24T10:40:15.804Z,3.35
2022-09-24T10:43:20.214Z,4.00
2022-09-24T10:46:44.548Z,4.43
2022-09-24T10:50:03.691Z,3.92
2022-09-24T10:53:09.155Z,3.50
2022-09-24T10:56:21.811Z,3.10
2022-09-24T10:59:44.253Z,3.03
2022-09-24T11:03:00.786Z,3.25
2022-09-24T11:06:19.227Z,4.78
2022-09-24T11:09:48.832Z,4.43
2022-09-24T11:13:17.552Z,3.72
2022-09-24T11:16:39.675Z,4.40
2022-09-24T11:20:13.180Z,7.15
2022-09-24T11:23:37.438Z,3.05
2022-09-24T11:27:05.482Z,3.58
2022-09-24T11:30:16.397Z,3.42
2022-09-24T11:33:30.783Z,3.47
2022-09-24T11:36:49.128Z,5.10
2022-09-24T11:40:12.616Z,4.78
2022-09-24T11:43:33.336Z,5.00
2022-09-24T11:46:57.350Z,3.50
2022-09-24T11:50:26.745Z,3.45
2022-09-24T11:53:37.428Z,4.53
2022-09-24T11:56:44.017Z,5.03
2022-09-24T11:59:51.702Z,4.38
2022-09-24T12:02:57.325Z,4.13
2022-09-24T12:06:08.103Z,8.32
2022-09-24T12:09:46.502Z,6.50
2022-09-24T12:12:48.001Z,6.10
2022-09-24T12:15:53.311Z,14.65
2022-09-24T12:19:11.039Z,8.20
2022-09-24T12:22:11.312Z,4.65
2022-09-24T12:25:13.590Z,6.30
2022-09-24T12:28:36.464Z,6.40
2022-09-24T12:32:10.270Z,7.47
2022-09-24T12:35:20.357Z,7.88
2022-09-24T12:38:32.101Z,10.05
2022-09-24T12:41:48.295Z,9.50
2022-09-24T12:44:52.633Z,8.35
2022-09-24T12:47:57.646Z,6.45
2022-09-24T12:51:00.344Z,6.80
2022-09-24T12:54:06.599Z,6.63
2022-09-24T12:57:25.324Z,8.18
2022-09-24T13:00:39.662Z,7.68
2022-09-24T13:03:46.644Z,8.50
2022-09-24T13:06:48.808Z,8.18
2022-09-24T13:09:47.095Z,7.40
2022-09-24T13:12:47.014Z,8.07
2022-09-24T13:15:45.730Z,7.97
2022-09-24T13:18:52.085Z,7.50
2022-09-24T13:21:59.671Z,6.18
2022-09-24T13:25:19.884Z,6.25
2022-09-24T13:28:29.257Z,6.18
2022-09-24T13:31:49.489Z,6.88
2022-09-24T13:34:50.686Z,6.82
2022-09-24T13:37:56.455Z,7.00
2022-09-24T13:41:07.536Z,5.32
2022-09-24T13:44:22.991Z,5.60
2022-09-24T13:47:36.596Z,6.28
2022-09-24T13:50:40.861Z,6.30
2022-09-24T13:53:47.524Z,5.68
2022-09-24T13:57:07.522Z,5.57
2022-09-24T14:00:20.265Z,5.43
2022-09-24T14:03:26.351Z,4.90
2022-09-24T14:06:35.884Z,4.50
2022-09-24T14:09:36.772Z,4.22
2022-09-24T14:12:35.020Z,4.30
2022-09-24T14:15:33.661Z,4.00
2022-09-24T14:18:35.085Z,3.83
2022-09-24T14:21:41.633Z,3.78
2022-09-24T14:27:46.984Z,3.55
2022-09-24T14:30:55.573Z,3.75
2022-09-24T14:33:54.461Z,4.47
2022-09-24T14:36:54.923Z,3.17
2022-09-24T14:40:02.726Z,4.00
2022-09-24T14:43:03.703Z,3.75
2022-09-24T14:46:05.880Z,3.13
2022-09-24T14:49:07.482Z,4.45
2022-09-24T14:52:06.217Z,5.00
2022-09-24T14:55:20.980Z,5.18
2022-09-24T14:58:36.874Z,5.47
2022-09-24T15:01:35.220Z,5.80
2022-09-24T15:04:33.981Z,6.00
2022-09-24T15:07:33.280Z,5.25
2022-09-24T15:10:31.932Z,5.85
2022-09-24T15:13:36.292Z,5.53
2022-09-24T15:16:38.063Z,5.00
2022-09-24T15:19:37.666Z,5.78
2022-09-24T15:22:36.321Z,5.47
2022-09-24T15:25:34.720Z,4.25
2022-09-24T15:28:33.402Z,4.53
2022-09-24T15:31:31.965Z,3.78
2022-09-24T15:34:30.659Z,4.43
2022-09-24T15:37:30.150Z,3.50
2022-09-24T15:40:31.588Z,3.95
2022-09-24T15:43:30.060Z,3.42
2022-09-24T15:46:29.070Z,4.70
2022-09-24T15:49:27.680Z,3.38
2022-09-24T15:52:32.334Z,3.63
2022-09-24T15:55:31.738Z,3.97
2022-09-24T15:58:30.623Z,4.97
2022-09-24T16:01:28.904Z,3.88
2022-09-24T16:04:27.949Z,4.00
2022-09-24T16:07:26.757Z,3.80
2022-09-24T16:10:25.530Z,4.75
2022-09-24T16:13:24.225Z,4.70
2022-09-24T16:16:22.937Z,5.32
2022-09-24T16:19:21.091Z,4.15
2022-09-24T16:22:20.777Z,4.15
2022-09-24T16:25:19.217Z,3.92
2022-09-24T16:28:18.243Z,4.07
2022-09-24T16:31:16.476Z,3.88
2022-09-24T16:34:15.313Z,4.00
2022-09-24T16:37:15.047Z,3.78
2022-09-24T16:40:13.888Z,4.20
2022-09-24T16:43:12.059Z,3.72
2022-09-24T16:46:14.132Z,3.53
2022-09-24T16:49:18.038Z,4.38
2022-09-24T16:52:16.897Z,3.65
2022-09-24T16:55:15.166Z,3.28
2022-09-24T16:58:14.097Z,3.47
2022-09-24T17:01:14.898Z,4.38
2022-09-24T17:04:13.721Z,3.22
2022-09-24T17:07:13.780Z,3.92
2022-09-24T17:10:13.820Z,4.28
2022-09-24T17:13:11.966Z,3.95
2022-09-24T17:16:11.013Z,3.45
2022-09-24T17:19:12.195Z,4.72
2022-09-24T17:22:11.027Z,4.65
2022-09-24T17:25:09.648Z,4.15
2022-09-24T17:28:08.335Z,4.18
2022-09-24T17:31:07.758Z,4.15
2022-09-24T17:34:10.168Z,3.85
2022-09-24T17:37:08.447Z,4.47
2022-09-24T17:40:08.576Z,4.78
2022-09-24T17:43:06.782Z,4.60
2022-09-24T17:46:13.768Z,3.92
2022-09-24T17:49:13.089Z,5.53
2022-09-24T17:52:13.902Z,4.30
2022-09-24T17:55:12.059Z,3.72
2022-09-24T17:58:10.738Z,3.75
2022-09-24T18:01:13.243Z,3.95
2022-09-24T18:04:14.575Z,4.13
2022-09-24T18:07:12.727Z,4.15
2022-09-24T18:10:11.543Z,3.65
2022-09-24T18:13:09.886Z,4.13
2022-09-24T18:16:11.754Z,3.25
2022-09-24T18:19:12.555Z,3.70
2022-09-24T18:22:11.789Z,3.60
2022-09-24T18:25:10.675Z,3.72
2022-09-24T18:28:09.984Z,3.78
2022-09-24T18:31:11.022Z,3.55
2022-09-24T18:34:13.538Z,3.53
2022-09-24T18:37:11.736Z,3.72
2022-09-24T18:40:11.365Z,3.40
2022-09-24T18:43:09.558Z,4.10
2022-09-24T18:46:11.854Z,3.40
2022-09-24T18:49:11.908Z,3.33
2022-09-24T18:52:11.062Z,3.90
2022-09-24T18:55:09.977Z,3.22
2022-09-24T18:58:11.500Z,3.63
2022-09-24T19:01:10.088Z,3.47
2022-09-24T19:04:11.223Z,3.92
2022-09-24T19:07:10.216Z,3.60
2022-09-24T19:10:11.008Z,3.10
2022-09-24T19:13:12.256Z,3.38
2022-09-24T19:16:14.029Z,2.70
2022-09-24T19:19:12.769Z,3.25
2022-09-24T19:22:11.579Z,3.78
2022-09-24T19:25:10.311Z,3.38
2022-09-24T19:28:12.688Z,3.10
2022-09-24T19:31:16.834Z,3.70
2022-09-24T19:34:15.881Z,3.22
2022-09-24T19:37:14.398Z,3.20
2022-09-24T19:40:13.825Z,4.00
2022-09-24T19:43:12.726Z,3.35
2022-09-24T19:46:15.284Z,3.28
2022-09-24T19:49:14.148Z,3.80
2022-09-24T19:52:12.911Z,4.28
2022-09-24T19:55:11.328Z,4.57
2022-09-24T19:58:10.101Z,3.75
2022-09-24T20:01:12.449Z,3.95
2022-09-24T20:04:15.701Z,4.13
2022-09-24T20:07:14.576Z,4.32
2022-09-24T20:10:13.347Z,3.63
2022-09-24T20:13:13.011Z,4.55
2022-09-24T20:16:12.338Z,3.75
2022-09-24T20:19:12.891Z,3.88
2022-09-24T20:22:16.607Z,3.97
2022-09-24T20:25:15.530Z,3.45
2022-09-24T20:28:15.938Z,3.55
2022-09-24T20:31:16.568Z,3.20
2022-09-24T20:34:15.365Z,3.55
2022-09-24T20:37:13.714Z,4.03
2022-09-24T20:40:12.751Z,3.35
2022-09-24T20:43:10.993Z,3.67
2022-09-24T20:46:11.241Z,4.35
2022-09-24T20:49:19.094Z,3.47
2022-09-24T20:52:17.777Z,3.95
2022-09-24T20:55:16.169Z,4.00
2022-09-24T20:58:16.874Z,3.60
2022-09-24T21:01:16.213Z,4.05
2022-09-24T21:04:15.061Z,4.00
2022-09-24T21:07:13.359Z,3.30
2022-09-24T21:10:13.747Z,4.13
2022-09-24T21:13:12.786Z,3.63
2022-09-24T21:16:12.627Z,3.67
2022-09-24T21:19:12.850Z,3.97
2022-09-24T21:22:14.114Z,3.42
2022-09-24T21:25:12.269Z,3.45
2022-09-24T21:28:10.956Z,3.97
2022-09-24T21:31:09.970Z,3.50
2022-09-24T21:34:09.273Z,3.85
2022-09-24T21:37:08.092Z,3.58
2022-09-24T21:40:07.724Z,2.80
2022-09-24T21:43:07.310Z,3.28
2022-09-24T21:46:07.469Z,3.80
2022-09-24T21:49:05.639Z,3.40
2022-09-24T21:52:06.556Z,3.70
2022-09-24T21:55:05.024Z,3.60
2022-09-24T21:58:03.627Z,3.45
2022-09-24T22:01:05.184Z,4.22
2022-09-24T22:04:06.206Z,3.53
2022-09-24T22:07:04.991Z,3.75
2022-09-24T22:10:03.755Z,3.78
2022-09-24T22:13:02.036Z,3.03
2022-09-24T22:16:02.452Z,3.65
2022-09-24T22:19:01.125Z,3.55
2022-09-24T22:21:59.955Z,3.88
2022-09-24T22:24:58.144Z,3.50
2022-09-24T22:27:56.843Z,3.30
2022-09-24T22:30:57.353Z,3.15
2022-09-24T22:34:12.094Z,3.22
2022-09-24T22:37:10.322Z,3.67
2022-09-24T22:40:09.341Z,3.53
2022-09-24T22:43:07.613Z,3.67
2022-09-24T22:46:09.155Z,3.33
2022-09-24T22:49:08.605Z,2.92
2022-09-24T22:52:07.269Z,3.72
2022-09-24T22:55:05.959Z,3.30
2022-09-24T22:58:04.696Z,3.33
2022-09-24T23:01:11.031Z,2.70
2022-09-24T23:04:11.122Z,3.17
2022-09-24T23:07:09.319Z,3.67
2022-09-24T23:10:08.594Z,3.47
2022-09-24T23:13:06.788Z,3.05
2022-09-24T23:16:12.192Z,3.40
2022-09-24T23:19:16.610Z,3.10
2022-09-24T23:22:16.958Z,2.83
2022-09-24T23:25:15.175Z,2.83
2022-09-24T23:28:13.860Z,3.55
2022-09-24T23:31:14.150Z,3.30
2022-09-24T23:34:14.659Z,3.45
2022-09-24T23:37:13.298Z,3.13
2022-09-24T23:40:12.234Z,3.42
2022-09-24T23:43:10.665Z,3.08
2022-09-24T23:46:10.997Z,3.25
2022-09-24T23:49:09.266Z,3.03
2022-09-24T23:52:09.044Z,3.50
2022-09-24T23:55:07.550Z,3.13
2022-09-24T23:58:06.393Z,2.78
